Terminal Aerodrome Forecast
Issued by NWS Omaha/Valley, NE

Home | Current Version | Previous Version | Text Only | Print | Product List | Glossary On
Versions: 1 2 3 4 5 6 7 8 9 10 11 12 13 14 15 16 17 18 19 20 21 22 23 24 25 26 27 28 29 30 31 32 33
000
FTUS43 KOAX 110701 AAO
TAFOFK
TAF AMD
KOFK 110701Z 1107/1206 18020G30KT P6SM SCT030 BKN150
     FM110800 VRB06KT P6SM BKN100
     FM111200 31010KT P6SM FEW250
     FM111700 33015G25KT P6SM SKC
     FM112300 33010KT P6SM SKC
     FM120100 33005KT P6SM SKC=

USA.gov is the U.S. government's official web portal to all federal, state and local government web resources and services.